NST,Max TemperatureF,Mean TemperatureF,Min TemperatureF,Max Dew PointF,MeanDew PointF,Min DewpointF,Max Humidity, Mean Humidity, Min Humidity, Max Sea Level PressureIn, Mean Sea Level PressureIn, Min Sea Level PressureIn, Max VisibilityMiles, Mean VisibilityMiles, Min VisibilityMiles, Max Wind SpeedMPH, Mean Wind SpeedMPH, Max Gust SpeedMPH,PrecipitationIn, CloudCover, Events, WindDirDegrees
2012-11-1,50,48,46,49,48,45,100,96,86,30.12,30.01,29.88,,,,20,10,26,0.24,,,115
2012-11-2,53,50,48,53,51,50,100,99,97,29.86,29.75,29.68,,,,22,15,30,0.24,,,143
2012-11-3,53,51,49,53,51,49,100,99,95,29.67,29.56,29.46,,,,22,10,28,0.12,,,132
2012-11-4,52,50,48,51,49,47,100,95,88,29.59,29.51,29.44,,,,22,17,29,0.03,,,200
2012-11-5,54,50,46,49,47,45,97,92,81,30.06,29.85,29.61,,,,21,16,22,0.00,,,237
2012-11-6,54,47,40,53,45,35,99,91,73,30.16,29.93,29.72,,,,34,16,45,0.12,,,210
2012-11-7,46,40,33,39,35,33,94,77,52,30.34,30.26,30.17,,,,23,9,31,0.24,,,302
2012-11-8,46,44,41,46,44,39,100,97,89,30.22,30.04,29.91,,,,37,29,45,0.47,,,49
2012-11-9,54,49,44,54,51,46,100,99,97,29.90,29.63,29.38,,,,28,15,33,0.35,,,152
2012-11-10,49,42,36,48,39,31,100,85,70,29.85,29.65,29.46,,,,33,27,55,0.04,,,267
2012-11-11,44,38,33,32,29,25,79,64,44,30.35,30.12,29.86,,,,39,30,56,0.00,,,289
2012-11-12,46,36,26,43,30,21,89,73,34,30.53,30.49,30.38,,,,22,11,28,0.00,,,267
2012-11-13,54,48,43,50,48,43,97,94,87,30.46,30.43,30.40,,,,34,24,44,0.00,,,251
2012-11-14,53,50,46,51,50,48,98,95,89,30.45,30.41,30.38,,,,21,18,28,0.04,,,220
2012-11-15,45,44,42,48,44,42,99,99,94,30.37,30.27,30.06,,,,29,17,37,0.55,,,40
2012-11-16,54,48,43,53,46,42,100,96,90,30.02,29.85,29.72,,,,37,27,46,0.04,,,12
2012-11-17,45,37,29,44,38,28,97,93,87,30.33,30.15,30.00,,,,15,8,23,0.00,,,344
2012-11-18,37,30,22,29,24,20,94,82,56,30.51,30.43,30.32,,,,20,9,25,0.00,,,315
2012-11-19,41,31,21,35,29,19,91,80,64,30.49,30.34,30.14,,,,31,17,39,0.00,,,281
2012-11-20,47,40,32,38,33,22,91,76,54,30.20,30.08,30.00,,,,26,19,34,0.00,,,317
2012-11-21,39,34,30,32,28,20,94,73,52,30.33,30.28,30.20,,,,25,20,36,0.00,,,36
2012-11-22,42,36,29,38,34,30,100,90,75,30.30,30.24,30.19,,,,13,9,,0.00,,,8
2012-11-23,48,38,29,44,40,31,97,90,78,30.17,30.10,30.02,,,,16,13,22,0.00,,,233
2012-11-24,51,46,40,49,46,41,100,98,95,30.00,29.70,29.24,,,,29,14,39,0.12,,,100
2012-11-25,49,46,43,49,44,38,100,93,77,29.53,29.28,29.09,,,,28,19,38,0.28,,,216
2012-11-26,46,41,36,41,37,31,90,83,74,29.80,29.68,29.55,,,,24,21,33,0.00,,,234
2012-11-27,41,37,33,36,33,29,94,85,68,30.30,30.07,29.80,,,,25,20,34,0.04,,,270
2012-11-28,41,38,34,36,35,31,99,93,83,30.32,30.10,29.69,,,,44,15,56,0.71,,,26
2012-11-29,39,36,32,38,35,28,100,94,65,29.70,29.46,29.16,,,,45,32,59,0.28,,,360
2012-11-30,35,30,26,31,27,24,99,85,59,29.98,29.79,29.64,,,,38,32,53,0.04,,,272